sensor_id;sensor_type;location;lat;lon;timestamp;P1;durP1;ratioP1;P2;durP2;ratioP2
31910;SDS011;18457;52.432;16.914;2023-04-25T00:02:15;6.10;;;2.50;;
31910;SDS011;18457;52.432;16.914;2023-04-25T00:04:48;3.20;;;2.30;;
31910;SDS011;18457;52.432;16.914;2023-04-25T00:07:21;2.50;;;2.00;;
31910;SDS011;18457;52.432;16.914;2023-04-25T00:09:55;3.40;;;2.00;;
31910;SDS011;18457;52.432;16.914;2023-04-25T00:12:27;1.90;;;1.80;;
31910;SDS011;18457;52.432;16.914;2023-04-25T00:14:59;3.10;;;2.20;;
31910;SDS011;18457;52.432;16.914;2023-04-25T00:17:31;2.20;;;1.70;;
31910;SDS011;18457;52.432;16.914;2023-04-25T00:20:09;3.80;;;1.90;;
31910;SDS011;18457;52.432;16.914;2023-04-25T00:22:42;7.50;;;2.30;;
31910;SDS011;18457;52.432;16.914;2023-04-25T00:25:14;5.50;;;2.00;;
31910;SDS011;18457;52.432;16.914;2023-04-25T00:27:46;4.50;;;2.10;;
31910;SDS011;18457;52.432;16.914;2023-04-25T00:30:18;2.40;;;2.10;;
31910;SDS011;18457;52.432;16.914;2023-04-25T00:32:50;2.70;;;2.00;;
31910;SDS011;18457;52.432;16.914;2023-04-25T00:35:22;3.70;;;1.80;;
31910;SDS011;18457;52.432;16.914;2023-04-25T00:37:54;3.30;;;1.50;;
31910;SDS011;18457;52.432;16.914;2023-04-25T00:40:27;2.70;;;2.10;;
31910;SDS011;18457;52.432;16.914;2023-04-25T00:42:59;2.00;;;1.80;;
31910;SDS011;18457;52.432;16.914;2023-04-25T00:45:31;3.90;;;2.30;;
31910;SDS011;18457;52.432;16.914;2023-04-25T00:48:08;2.50;;;1.80;;
31910;SDS011;18457;52.432;16.914;2023-04-25T00:50:40;5.60;;;2.50;;
31910;SDS011;18457;52.432;16.914;2023-04-25T00:55:44;4.40;;;2.00;;
31910;SDS011;18457;52.432;16.914;2023-04-25T00:58:16;3.70;;;2.20;;
31910;SDS011;18457;52.432;16.914;2023-04-25T01:00:48;5.90;;;2.30;;
31910;SDS011;18457;52.432;16.914;2023-04-25T01:03:22;3.10;;;2.10;;
31910;SDS011;18457;52.432;16.914;2023-04-25T01:05:55;2.50;;;2.10;;
31910;SDS011;18457;52.432;16.914;2023-04-25T01:08:27;4.90;;;2.30;;
31910;SDS011;18457;52.432;16.914;2023-04-25T01:11:00;2.80;;;2.00;;
31910;SDS011;18457;52.432;16.914;2023-04-25T01:13:33;4.40;;;2.00;;
31910;SDS011;18457;52.432;16.914;2023-04-25T01:16:06;3.30;;;2.30;;
31910;SDS011;18457;52.432;16.914;2023-04-25T01:18:39;3.00;;;2.20;;
31910;SDS011;18457;52.432;16.914;2023-04-25T01:21:12;2.60;;;2.10;;
31910;SDS011;18457;52.432;16.914;2023-04-25T01:23:46;3.70;;;2.10;;
31910;SDS011;18457;52.432;16.914;2023-04-25T01:26:21;3.80;;;2.60;;
31910;SDS011;18457;52.432;16.914;2023-04-25T01:28:54;6.80;;;2.70;;
31910;SDS011;18457;52.432;16.914;2023-04-25T01:31:28;2.30;;;2.00;;
31910;SDS011;18457;52.432;16.914;2023-04-25T01:34:02;3.10;;;2.40;;
31910;SDS011;18457;52.432;16.914;2023-04-25T01:36:35;2.70;;;2.20;;
31910;SDS011;18457;52.432;16.914;2023-04-25T01:39:07;4.40;;;2.40;;
31910;SDS011;18457;52.432;16.914;2023-04-25T01:41:40;3.80;;;2.70;;
31910;SDS011;18457;52.432;16.914;2023-04-25T01:44:12;3.90;;;2.60;;
31910;SDS011;18457;52.432;16.914;2023-04-25T01:49:16;6.70;;;2.70;;
31910;SDS011;18457;52.432;16.914;2023-04-25T01:51:48;2.80;;;2.50;;
31910;SDS011;18457;52.432;16.914;2023-04-25T01:54:20;4.70;;;2.70;;
31910;SDS011;18457;52.432;16.914;2023-04-25T01:56:52;3.80;;;3.00;;
31910;SDS011;18457;52.432;16.914;2023-04-25T01:59:27;4.80;;;3.20;;
31910;SDS011;18457;52.432;16.914;2023-04-25T02:02:08;6.50;;;2.80;;
31910;SDS011;18457;52.432;16.914;2023-04-25T02:04:40;5.50;;;3.10;;
31910;SDS011;18457;52.432;16.914;2023-04-25T02:07:14;7.20;;;2.90;;
31910;SDS011;18457;52.432;16.914;2023-04-25T02:09:51;5.30;;;2.80;;
31910;SDS011;18457;52.432;16.914;2023-04-25T02:12:24;3.70;;;2.90;;
31910;SDS011;18457;52.432;16.914;2023-04-25T02:14:56;2.90;;;2.20;;
31910;SDS011;18457;52.432;16.914;2023-04-25T02:17:38;5.30;;;3.00;;
31910;SDS011;18457;52.432;16.914;2023-04-25T02:20:11;5.20;;;3.50;;
31910;SDS011;18457;52.432;16.914;2023-04-25T02:22:45;7.20;;;3.00;;
31910;SDS011;18457;52.432;16.914;2023-04-25T02:27:49;4.50;;;3.10;;
31910;SDS011;18457;52.432;16.914;2023-04-25T02:30:22;6.10;;;3.30;;
31910;SDS011;18457;52.432;16.914;2023-04-25T02:32:53;3.30;;;2.80;;
31910;SDS011;18457;52.432;16.914;2023-04-25T02:35:26;4.90;;;3.20;;
31910;SDS011;18457;52.432;16.914;2023-04-25T02:37:58;6.40;;;4.10;;
31910;SDS011;18457;52.432;16.914;2023-04-25T02:40:30;7.20;;;3.30;;
31910;SDS011;18457;52.432;16.914;2023-04-25T02:43:02;9.50;;;3.30;;
31910;SDS011;18457;52.432;16.914;2023-04-25T02:45:34;4.10;;;3.30;;
31910;SDS011;18457;52.432;16.914;2023-04-25T02:50:37;4.10;;;3.00;;
31910;SDS011;18457;52.432;16.914;2023-04-25T02:53:09;4.10;;;3.10;;
31910;SDS011;18457;52.432;16.914;2023-04-25T02:55:46;6.20;;;3.70;;
31910;SDS011;18457;52.432;16.914;2023-04-25T02:58:18;6.50;;;3.40;;
31910;SDS011;18457;52.432;16.914;2023-04-25T03:00:52;7.80;;;3.70;;
31910;SDS011;18457;52.432;16.914;2023-04-25T03:03:25;4.40;;;3.70;;
31910;SDS011;18457;52.432;16.914;2023-04-25T03:05:56;6.60;;;3.90;;
31910;SDS011;18457;52.432;16.914;2023-04-25T03:08:31;5.50;;;3.80;;
31910;SDS011;18457;52.432;16.914;2023-04-25T03:11:03;4.70;;;3.40;;
31910;SDS011;18457;52.432;16.914;2023-04-25T03:13:36;8.20;;;3.80;;
31910;SDS011;18457;52.432;16.914;2023-04-25T03:16:09;7.10;;;4.30;;
31910;SDS011;18457;52.432;16.914;2023-04-25T03:18:41;5.20;;;3.40;;
31910;SDS011;18457;52.432;16.914;2023-04-25T03:21:14;7.70;;;4.00;;
31910;SDS011;18457;52.432;16.914;2023-04-25T03:23:46;6.30;;;4.60;;
31910;SDS011;18457;52.432;16.914;2023-04-25T03:26:18;7.50;;;5.00;;
31910;SDS011;18457;52.432;16.914;2023-04-25T03:28:50;3.30;;;2.80;;
31910;SDS011;18457;52.432;16.914;2023-04-25T03:31:22;7.90;;;4.10;;
31910;SDS011;18457;52.432;16.914;2023-04-25T03:33:55;11.40;;;4.40;;
31910;SDS011;18457;52.432;16.914;2023-04-25T03:36:27;7.70;;;4.20;;
31910;SDS011;18457;52.432;16.914;2023-04-25T03:38:59;6.90;;;4.70;;
31910;SDS011;18457;52.432;16.914;2023-04-25T03:41:31;9.60;;;5.60;;
31910;SDS011;18457;52.432;16.914;2023-04-25T03:44:08;8.40;;;4.10;;
31910;SDS011;18457;52.432;16.914;2023-04-25T03:46:40;8.10;;;4.20;;
31910;SDS011;18457;52.432;16.914;2023-04-25T03:49:13;8.10;;;4.60;;
31910;SDS011;18457;52.432;16.914;2023-04-25T03:51:58;8.00;;;4.30;;
31910;SDS011;18457;52.432;16.914;2023-04-25T03:54:35;6.60;;;4.50;;
31910;SDS011;18457;52.432;16.914;2023-04-25T03:57:19;8.40;;;4.40;;
31910;SDS011;18457;52.432;16.914;2023-04-25T03:59:51;9.60;;;4.80;;
31910;SDS011;18457;52.432;16.914;2023-04-25T04:02:24;10.70;;;4.70;;
31910;SDS011;18457;52.432;16.914;2023-04-25T04:04:56;7.30;;;5.40;;
31910;SDS011;18457;52.432;16.914;2023-04-25T04:10:04;10.20;;;5.10;;
31910;SDS011;18457;52.432;16.914;2023-04-25T04:12:39;10.60;;;5.90;;
31910;SDS011;18457;52.432;16.914;2023-04-25T04:15:11;8.40;;;5.50;;
31910;SDS011;18457;52.432;16.914;2023-04-25T04:17:47;9.00;;;5.20;;
31910;SDS011;18457;52.432;16.914;2023-04-25T04:20:20;10.90;;;5.00;;
31910;SDS011;18457;52.432;16.914;2023-04-25T04:22:52;7.90;;;5.30;;
31910;SDS011;18457;52.432;16.914;2023-04-25T04:25:25;10.30;;;5.80;;
31910;SDS011;18457;52.432;16.914;2023-04-25T04:28:10;11.70;;;6.10;;
31910;SDS011;18457;52.432;16.914;2023-04-25T04:30:51;13.40;;;6.00;;
31910;SDS011;18457;52.432;16.914;2023-04-25T04:33:22;8.70;;;5.80;;
31910;SDS011;18457;52.432;16.914;2023-04-25T04:36:01;8.50;;;6.00;;
31910;SDS011;18457;52.432;16.914;2023-04-25T04:38:33;10.30;;;6.00;;
31910;SDS011;18457;52.432;16.914;2023-04-25T04:41:09;11.20;;;5.60;;
31910;SDS011;18457;52.432;16.914;2023-04-25T04:43:51;11.60;;;6.00;;
31910;SDS011;18457;52.432;16.914;2023-04-25T04:46:33;15.60;;;6.90;;
31910;SDS011;18457;52.432;16.914;2023-04-25T04:49:28;11.60;;;5.70;;
31910;SDS011;18457;52.432;16.914;2023-04-25T04:52:20;8.20;;;5.30;;
31910;SDS011;18457;52.432;16.914;2023-04-25T04:55:15;14.30;;;5.90;;
31910;SDS011;18457;52.432;16.914;2023-04-25T04:58:05;11.00;;;6.60;;
31910;SDS011;18457;52.432;16.914;2023-04-25T05:00:55;9.80;;;6.00;;
31910;SDS011;18457;52.432;16.914;2023-04-25T05:03:50;8.70;;;5.80;;
31910;SDS011;18457;52.432;16.914;2023-04-25T05:06:36;12.90;;;5.70;;
31910;SDS011;18457;52.432;16.914;2023-04-25T05:09:17;10.10;;;6.50;;
31910;SDS011;18457;52.432;16.914;2023-04-25T05:12:04;9.70;;;5.80;;
31910;SDS011;18457;52.432;16.914;2023-04-25T05:15:09;12.10;;;5.20;;
31910;SDS011;18457;52.432;16.914;2023-04-25T05:18:01;6.70;;;4.70;;
31910;SDS011;18457;52.432;16.914;2023-04-25T05:20:43;12.80;;;5.60;;
31910;SDS011;18457;52.432;16.914;2023-04-25T05:23:45;11.90;;;5.90;;
31910;SDS011;18457;52.432;16.914;2023-04-25T05:26:36;10.70;;;5.90;;
31910;SDS011;18457;52.432;16.914;2023-04-25T05:29:24;8.70;;;5.30;;
31910;SDS011;18457;52.432;16.914;2023-04-25T05:32:09;12.90;;;6.20;;
31910;SDS011;18457;52.432;16.914;2023-04-25T05:34:42;11.60;;;5.70;;
31910;SDS011;18457;52.432;16.914;2023-04-25T05:37:24;9.50;;;5.20;;
31910;SDS011;18457;52.432;16.914;2023-04-25T05:40:13;7.10;;;4.70;;
31910;SDS011;18457;52.432;16.914;2023-04-25T05:43:04;7.70;;;5.30;;
31910;SDS011;18457;52.432;16.914;2023-04-25T05:45:51;14.00;;;6.30;;
31910;SDS011;18457;52.432;16.914;2023-04-25T05:48:53;11.20;;;5.90;;
31910;SDS011;18457;52.432;16.914;2023-04-25T05:51:52;15.50;;;5.40;;
31910;SDS011;18457;52.432;16.914;2023-04-25T05:54:50;9.70;;;5.00;;
31910;SDS011;18457;52.432;16.914;2023-04-25T05:57:23;10.00;;;5.50;;
31910;SDS011;18457;52.432;16.914;2023-04-25T05:59:58;9.20;;;5.20;;
31910;SDS011;18457;52.432;16.914;2023-04-25T06:02:42;8.80;;;5.70;;
31910;SDS011;18457;52.432;16.914;2023-04-25T06:05:15;8.80;;;5.10;;
31910;SDS011;18457;52.432;16.914;2023-04-25T06:07:48;8.90;;;5.00;;
31910;SDS011;18457;52.432;16.914;2023-04-25T06:10:20;5.30;;;3.90;;
31910;SDS011;18457;52.432;16.914;2023-04-25T06:12:52;7.50;;;5.10;;
31910;SDS011;18457;52.432;16.914;2023-04-25T06:15:24;9.90;;;5.50;;
31910;SDS011;18457;52.432;16.914;2023-04-25T06:17:57;12.20;;;5.70;;
31910;SDS011;18457;52.432;16.914;2023-04-25T06:20:29;9.80;;;5.20;;
31910;SDS011;18457;52.432;16.914;2023-04-25T06:23:01;11.60;;;5.10;;
31910;SDS011;18457;52.432;16.914;2023-04-25T06:26:03;15.60;;;5.80;;
31910;SDS011;18457;52.432;16.914;2023-04-25T06:28:35;12.40;;;5.10;;
31910;SDS011;18457;52.432;16.914;2023-04-25T06:31:08;10.70;;;5.10;;
31910;SDS011;18457;52.432;16.914;2023-04-25T06:33:40;8.80;;;5.10;;
31910;SDS011;18457;52.432;16.914;2023-04-25T06:36:12;13.70;;;5.60;;
31910;SDS011;18457;52.432;16.914;2023-04-25T06:38:45;11.50;;;5.30;;
31910;SDS011;18457;52.432;16.914;2023-04-25T06:41:17;8.30;;;5.20;;
31910;SDS011;18457;52.432;16.914;2023-04-25T06:43:50;14.50;;;6.30;;
31910;SDS011;18457;52.432;16.914;2023-04-25T06:46:44;16.60;;;5.70;;
31910;SDS011;18457;52.432;16.914;2023-04-25T06:49:16;11.30;;;5.80;;
31910;SDS011;18457;52.432;16.914;2023-04-25T06:51:48;9.80;;;6.20;;
31910;SDS011;18457;52.432;16.914;2023-04-25T06:54:20;12.50;;;5.70;;
31910;SDS011;18457;52.432;16.914;2023-04-25T06:57:01;9.10;;;5.80;;
31910;SDS011;18457;52.432;16.914;2023-04-25T07:02:04;9.30;;;5.30;;
31910;SDS011;18457;52.432;16.914;2023-04-25T07:04:36;12.00;;;5.50;;
31910;SDS011;18457;52.432;16.914;2023-04-25T07:07:08;9.80;;;5.50;;
31910;SDS011;18457;52.432;16.914;2023-04-25T07:09:46;10.20;;;5.70;;
31910;SDS011;18457;52.432;16.914;2023-04-25T07:12:19;11.30;;;6.60;;
31910;SDS011;18457;52.432;16.914;2023-04-25T07:14:51;16.40;;;6.00;;
31910;SDS011;18457;52.432;16.914;2023-04-25T07:17:23;9.10;;;5.10;;
31910;SDS011;18457;52.432;16.914;2023-04-25T07:19:55;9.10;;;4.70;;
31910;SDS011;18457;52.432;16.914;2023-04-25T07:22:28;10.80;;;4.80;;
31910;SDS011;18457;52.432;16.914;2023-04-25T07:25:00;14.30;;;5.30;;
31910;SDS011;18457;52.432;16.914;2023-04-25T07:27:35;8.60;;;5.30;;
31910;SDS011;18457;52.432;16.914;2023-04-25T07:30:20;8.70;;;5.10;;
31910;SDS011;18457;52.432;16.914;2023-04-25T07:32:52;13.60;;;6.20;;
31910;SDS011;18457;52.432;16.914;2023-04-25T07:35:24;14.50;;;5.50;;
31910;SDS011;18457;52.432;16.914;2023-04-25T07:37:57;8.70;;;4.40;;
31910;SDS011;18457;52.432;16.914;2023-04-25T07:40:29;12.30;;;5.50;;
31910;SDS011;18457;52.432;16.914;2023-04-25T07:43:05;11.50;;;4.90;;
31910;SDS011;18457;52.432;16.914;2023-04-25T07:45:55;9.10;;;5.40;;
31910;SDS011;18457;52.432;16.914;2023-04-25T07:48:29;8.30;;;5.20;;
31910;SDS011;18457;52.432;16.914;2023-04-25T07:53:33;8.70;;;4.70;;
31910;SDS011;18457;52.432;16.914;2023-04-25T07:56:09;13.20;;;5.60;;
31910;SDS011;18457;52.432;16.914;2023-04-25T07:58:43;15.50;;;4.70;;
31910;SDS011;18457;52.432;16.914;2023-04-25T08:01:16;17.10;;;5.80;;
31910;SDS011;18457;52.432;16.914;2023-04-25T08:03:57;9.40;;;5.20;;
31910;SDS011;18457;52.432;16.914;2023-04-25T08:06:48;12.90;;;5.30;;
31910;SDS011;18457;52.432;16.914;2023-04-25T08:09:24;8.80;;;5.60;;
31910;SDS011;18457;52.432;16.914;2023-04-25T08:14:30;9.90;;;4.70;;
31910;SDS011;18457;52.432;16.914;2023-04-25T08:17:06;13.70;;;5.70;;
31910;SDS011;18457;52.432;16.914;2023-04-25T08:19:42;9.10;;;5.20;;
31910;SDS011;18457;52.432;16.914;2023-04-25T08:22:21;16.70;;;5.30;;
31910;SDS011;18457;52.432;16.914;2023-04-25T08:24:59;12.30;;;5.10;;
31910;SDS011;18457;52.432;16.914;2023-04-25T08:27:32;9.30;;;5.00;;
31910;SDS011;18457;52.432;16.914;2023-04-25T08:30:04;6.80;;;5.20;;
31910;SDS011;18457;52.432;16.914;2023-04-25T08:32:38;10.50;;;5.30;;
31910;SDS011;18457;52.432;16.914;2023-04-25T08:35:40;11.60;;;5.10;;
31910;SDS011;18457;52.432;16.914;2023-04-25T08:38:12;9.50;;;5.40;;
31910;SDS011;18457;52.432;16.914;2023-04-25T08:40:45;11.00;;;6.00;;
31910;SDS011;18457;52.432;16.914;2023-04-25T08:43:22;8.20;;;5.00;;
31910;SDS011;18457;52.432;16.914;2023-04-25T08:48:36;9.00;;;5.60;;
31910;SDS011;18457;52.432;16.914;2023-04-25T08:51:10;15.50;;;5.80;;
31910;SDS011;18457;52.432;16.914;2023-04-25T08:53:50;9.50;;;5.70;;
31910;SDS011;18457;52.432;16.914;2023-04-25T08:56:30;11.60;;;5.70;;
31910;SDS011;18457;52.432;16.914;2023-04-25T08:59:04;12.40;;;5.60;;
31910;SDS011;18457;52.432;16.914;2023-04-25T09:01:37;9.20;;;5.80;;
31910;SDS011;18457;52.432;16.914;2023-04-25T09:04:09;11.80;;;5.70;;
31910;SDS011;18457;52.432;16.914;2023-04-25T09:06:43;11.40;;;6.20;;
31910;SDS011;18457;52.432;16.914;2023-04-25T09:09:16;10.60;;;6.80;;
31910;SDS011;18457;52.432;16.914;2023-04-25T09:11:48;12.30;;;6.00;;
31910;SDS011;18457;52.432;16.914;2023-04-25T09:14:21;10.10;;;5.70;;
31910;SDS011;18457;52.432;16.914;2023-04-25T09:17:04;12.30;;;6.30;;
31910;SDS011;18457;52.432;16.914;2023-04-25T09:19:57;13.90;;;6.40;;
31910;SDS011;18457;52.432;16.914;2023-04-25T09:22:38;8.90;;;5.90;;
31910;SDS011;18457;52.432;16.914;2023-04-25T09:25:10;12.20;;;7.00;;
31910;SDS011;18457;52.432;16.914;2023-04-25T09:27:50;8.80;;;6.10;;
31910;SDS011;18457;52.432;16.914;2023-04-25T09:30:30;10.90;;;5.90;;
31910;SDS011;18457;52.432;16.914;2023-04-25T09:33:10;13.40;;;6.30;;
31910;SDS011;18457;52.432;16.914;2023-04-25T09:35:46;9.30;;;6.40;;
31910;SDS011;18457;52.432;16.914;2023-04-25T09:41:08;9.00;;;5.90;;
31910;SDS011;18457;52.432;16.914;2023-04-25T09:43:44;13.00;;;6.00;;
31910;SDS011;18457;52.432;16.914;2023-04-25T09:46:20;9.10;;;6.10;;
31910;SDS011;18457;52.432;16.914;2023-04-25T09:48:56;15.20;;;5.90;;
31910;SDS011;18457;52.432;16.914;2023-04-25T09:51:36;10.00;;;5.80;;
31910;SDS011;18457;52.432;16.914;2023-04-25T09:54:08;16.30;;;6.20;;
31910;SDS011;18457;52.432;16.914;2023-04-25T09:56:48;10.50;;;6.10;;
31910;SDS011;18457;52.432;16.914;2023-04-25T09:59:22;8.90;;;6.30;;
31910;SDS011;18457;52.432;16.914;2023-04-25T10:01:54;7.90;;;6.00;;
31910;SDS011;18457;52.432;16.914;2023-04-25T10:04:31;13.50;;;6.20;;
31910;SDS011;18457;52.432;16.914;2023-04-25T10:07:29;8.90;;;5.80;;
31910;SDS011;18457;52.432;16.914;2023-04-25T10:10:03;11.60;;;5.50;;
31910;SDS011;18457;52.432;16.914;2023-04-25T10:12:36;12.10;;;5.40;;
31910;SDS011;18457;52.432;16.914;2023-04-25T10:15:09;10.00;;;5.50;;
31910;SDS011;18457;52.432;16.914;2023-04-25T10:17:44;9.80;;;5.60;;
31910;SDS011;18457;52.432;16.914;2023-04-25T10:20:16;8.40;;;5.00;;
31910;SDS011;18457;52.432;16.914;2023-04-25T10:22:48;5.20;;;3.20;;
31910;SDS011;18457;52.432;16.914;2023-04-25T10:25:25;12.20;;;5.30;;
31910;SDS011;18457;52.432;16.914;2023-04-25T10:27:57;10.20;;;5.30;;
31910;SDS011;18457;52.432;16.914;2023-04-25T10:30:33;8.10;;;5.20;;
31910;SDS011;18457;52.432;16.914;2023-04-25T10:33:04;9.30;;;5.80;;
31910;SDS011;18457;52.432;16.914;2023-04-25T10:35:48;12.50;;;6.10;;
31910;SDS011;18457;52.432;16.914;2023-04-25T10:38:20;9.80;;;5.80;;
31910;SDS011;18457;52.432;16.914;2023-04-25T10:41:03;6.90;;;4.90;;
31910;SDS011;18457;52.432;16.914;2023-04-25T10:43:38;11.70;;;4.80;;
31910;SDS011;18457;52.432;16.914;2023-04-25T10:46:19;13.20;;;7.80;;
31910;SDS011;18457;52.432;16.914;2023-04-25T10:48:52;10.30;;;5.80;;
31910;SDS011;18457;52.432;16.914;2023-04-25T10:51:26;8.70;;;4.90;;
31910;SDS011;18457;52.432;16.914;2023-04-25T10:54:19;7.10;;;4.10;;
31910;SDS011;18457;52.432;16.914;2023-04-25T10:56:54;6.20;;;4.00;;
31910;SDS011;18457;52.432;16.914;2023-04-25T10:59:29;11.00;;;5.00;;
31910;SDS011;18457;52.432;16.914;2023-04-25T11:02:09;10.70;;;5.00;;
31910;SDS011;18457;52.432;16.914;2023-04-25T11:04:44;6.10;;;4.50;;
31910;SDS011;18457;52.432;16.914;2023-04-25T11:07:18;10.90;;;5.30;;
31910;SDS011;18457;52.432;16.914;2023-04-25T11:09:59;19.30;;;4.90;;
31910;SDS011;18457;52.432;16.914;2023-04-25T11:12:33;6.60;;;5.70;;
31910;SDS011;18457;52.432;16.914;2023-04-25T11:15:09;11.00;;;5.50;;
31910;SDS011;18457;52.432;16.914;2023-04-25T11:17:41;6.40;;;4.90;;
31910;SDS011;18457;52.432;16.914;2023-04-25T11:20:15;5.30;;;3.90;;
31910;SDS011;18457;52.432;16.914;2023-04-25T11:22:48;6.90;;;4.00;;
31910;SDS011;18457;52.432;16.914;2023-04-25T11:25:21;12.00;;;4.70;;
31910;SDS011;18457;52.432;16.914;2023-04-25T11:27:56;6.00;;;4.10;;
31910;SDS011;18457;52.432;16.914;2023-04-25T11:30:30;5.00;;;3.50;;
31910;SDS011;18457;52.432;16.914;2023-04-25T11:33:02;7.60;;;4.10;;
31910;SDS011;18457;52.432;16.914;2023-04-25T11:35:34;10.70;;;4.80;;
31910;SDS011;18457;52.432;16.914;2023-04-25T11:38:06;9.00;;;4.20;;
31910;SDS011;18457;52.432;16.914;2023-04-25T11:40:39;5.60;;;4.00;;
31910;SDS011;18457;52.432;16.914;2023-04-25T11:43:11;10.80;;;4.40;;
31910;SDS011;18457;52.432;16.914;2023-04-25T11:45:47;6.70;;;4.20;;
31910;SDS011;18457;52.432;16.914;2023-04-25T11:48:20;4.30;;;3.60;;
31910;SDS011;18457;52.432;16.914;2023-04-25T11:50:54;5.70;;;3.70;;
31910;SDS011;18457;52.432;16.914;2023-04-25T11:53:27;16.00;;;5.90;;
31910;SDS011;18457;52.432;16.914;2023-04-25T11:55:58;7.10;;;4.10;;
31910;SDS011;18457;52.432;16.914;2023-04-25T11:58:31;7.70;;;4.60;;
31910;SDS011;18457;52.432;16.914;2023-04-25T12:01:27;11.30;;;3.80;;
31910;SDS011;18457;52.432;16.914;2023-04-25T12:04:14;13.70;;;5.00;;
31910;SDS011;18457;52.432;16.914;2023-04-25T12:06:48;7.60;;;4.50;;
31910;SDS011;18457;52.432;16.914;2023-04-25T12:09:28;9.90;;;4.60;;
31910;SDS011;18457;52.432;16.914;2023-04-25T12:12:02;10.80;;;4.50;;
31910;SDS011;18457;52.432;16.914;2023-04-25T12:14:35;12.70;;;4.50;;
31910;SDS011;18457;52.432;16.914;2023-04-25T12:17:07;8.70;;;5.40;;
31910;SDS011;18457;52.432;16.914;2023-04-25T12:19:41;7.40;;;4.50;;
31910;SDS011;18457;52.432;16.914;2023-04-25T12:22:20;6.70;;;4.50;;
31910;SDS011;18457;52.432;16.914;2023-04-25T12:24:54;7.00;;;4.40;;
31910;SDS011;18457;52.432;16.914;2023-04-25T12:27:27;14.90;;;5.50;;
31910;SDS011;18457;52.432;16.914;2023-04-25T12:30:01;13.50;;;4.20;;
31910;SDS011;18457;52.432;16.914;2023-04-25T12:32:34;8.20;;;4.40;;
31910;SDS011;18457;52.432;16.914;2023-04-25T12:35:07;9.80;;;5.10;;
31910;SDS011;18457;52.432;16.914;2023-04-25T12:37:39;9.10;;;4.90;;
31910;SDS011;18457;52.432;16.914;2023-04-25T12:40:12;8.20;;;4.80;;
31910;SDS011;18457;52.432;16.914;2023-04-25T12:42:44;16.60;;;4.80;;
31910;SDS011;18457;52.432;16.914;2023-04-25T12:45:16;11.30;;;5.80;;
31910;SDS011;18457;52.432;16.914;2023-04-25T12:47:48;10.20;;;5.50;;
31910;SDS011;18457;52.432;16.914;2023-04-25T12:50:20;7.40;;;4.20;;
31910;SDS011;18457;52.432;16.914;2023-04-25T12:52:52;8.60;;;3.60;;
31910;SDS011;18457;52.432;16.914;2023-04-25T12:55:24;9.40;;;3.70;;
31910;SDS011;18457;52.432;16.914;2023-04-25T12:57:56;13.10;;;4.80;;
31910;SDS011;18457;52.432;16.914;2023-04-25T13:00:28;6.20;;;4.20;;
31910;SDS011;18457;52.432;16.914;2023-04-25T13:03:01;5.20;;;3.70;;
31910;SDS011;18457;52.432;16.914;2023-04-25T13:05:33;16.20;;;8.00;;
31910;SDS011;18457;52.432;16.914;2023-04-25T13:08:05;6.90;;;3.30;;
31910;SDS011;18457;52.432;16.914;2023-04-25T13:10:37;6.10;;;2.90;;
31910;SDS011;18457;52.432;16.914;2023-04-25T13:13:09;9.10;;;3.90;;
31910;SDS011;18457;52.432;16.914;2023-04-25T13:15:41;6.90;;;3.50;;
31910;SDS011;18457;52.432;16.914;2023-04-25T13:18:13;4.10;;;3.10;;
31910;SDS011;18457;52.432;16.914;2023-04-25T13:20:46;7.10;;;2.60;;
31910;SDS011;18457;52.432;16.914;2023-04-25T13:23:18;6.60;;;2.10;;
31910;SDS011;18457;52.432;16.914;2023-04-25T13:28:21;3.20;;;2.10;;
31910;SDS011;18457;52.432;16.914;2023-04-25T13:30:53;3.00;;;2.10;;
31910;SDS011;18457;52.432;16.914;2023-04-25T13:33:25;2.70;;;2.30;;
31910;SDS011;18457;52.432;16.914;2023-04-25T13:35:57;4.70;;;2.20;;
31910;SDS011;18457;52.432;16.914;2023-04-25T13:38:30;4.60;;;2.30;;
31910;SDS011;18457;52.432;16.914;2023-04-25T13:41:02;2.30;;;2.00;;
31910;SDS011;18457;52.432;16.914;2023-04-25T13:43:36;3.60;;;2.20;;
31910;SDS011;18457;52.432;16.914;2023-04-25T13:46:08;6.40;;;2.60;;
31910;SDS011;18457;52.432;16.914;2023-04-25T13:49:02;7.70;;;2.40;;
31910;SDS011;18457;52.432;16.914;2023-04-25T13:51:41;5.40;;;2.60;;
31910;SDS011;18457;52.432;16.914;2023-04-25T13:54:14;6.00;;;2.80;;
31910;SDS011;18457;52.432;16.914;2023-04-25T13:56:45;5.40;;;3.30;;
31910;SDS011;18457;52.432;16.914;2023-04-25T13:59:19;6.20;;;3.10;;
31910;SDS011;18457;52.432;16.914;2023-04-25T14:01:51;10.20;;;3.00;;
31910;SDS011;18457;52.432;16.914;2023-04-25T14:04:24;8.40;;;3.50;;
31910;SDS011;18457;52.432;16.914;2023-04-25T14:06:56;7.30;;;3.80;;
31910;SDS011;18457;52.432;16.914;2023-04-25T14:09:31;7.80;;;4.40;;
31910;SDS011;18457;52.432;16.914;2023-04-25T14:12:03;9.90;;;4.00;;
31910;SDS011;18457;52.432;16.914;2023-04-25T14:14:36;8.30;;;4.40;;
31910;SDS011;18457;52.432;16.914;2023-04-25T14:17:08;8.90;;;4.10;;
31910;SDS011;18457;52.432;16.914;2023-04-25T14:19:41;6.20;;;3.30;;
31910;SDS011;18457;52.432;16.914;2023-04-25T14:22:17;3.90;;;3.10;;
31910;SDS011;18457;52.432;16.914;2023-04-25T14:24:53;10.50;;;3.10;;
31910;SDS011;18457;52.432;16.914;2023-04-25T14:27:27;7.00;;;3.20;;
31910;SDS011;18457;52.432;16.914;2023-04-25T14:30:00;5.20;;;2.90;;
31910;SDS011;18457;52.432;16.914;2023-04-25T14:32:34;6.90;;;3.40;;
31910;SDS011;18457;52.432;16.914;2023-04-25T14:35:07;7.00;;;3.40;;
31910;SDS011;18457;52.432;16.914;2023-04-25T14:37:41;8.00;;;3.40;;
31910;SDS011;18457;52.432;16.914;2023-04-25T14:40:15;4.80;;;2.70;;
31910;SDS011;18457;52.432;16.914;2023-04-25T14:42:47;9.30;;;3.60;;
31910;SDS011;18457;52.432;16.914;2023-04-25T14:45:21;6.00;;;3.00;;
31910;SDS011;18457;52.432;16.914;2023-04-25T14:50:26;4.40;;;3.00;;
31910;SDS011;18457;52.432;16.914;2023-04-25T14:53:00;5.20;;;2.70;;
31910;SDS011;18457;52.432;16.914;2023-04-25T14:55:32;10.20;;;3.10;;
31910;SDS011;18457;52.432;16.914;2023-04-25T14:58:07;6.50;;;3.00;;
31910;SDS011;18457;52.432;16.914;2023-04-25T15:00:40;8.50;;;3.40;;
31910;SDS011;18457;52.432;16.914;2023-04-25T15:03:19;5.40;;;2.80;;
31910;SDS011;18457;52.432;16.914;2023-04-25T15:05:53;7.10;;;2.60;;
31910;SDS011;18457;52.432;16.914;2023-04-25T15:08:29;4.10;;;2.60;;
31910;SDS011;18457;52.432;16.914;2023-04-25T15:11:04;7.80;;;2.90;;
31910;SDS011;18457;52.432;16.914;2023-04-25T15:13:37;14.30;;;2.80;;
31910;SDS011;18457;52.432;16.914;2023-04-25T15:16:11;6.80;;;3.00;;
31910;SDS011;18457;52.432;16.914;2023-04-25T15:18:46;9.90;;;3.30;;
31910;SDS011;18457;52.432;16.914;2023-04-25T15:21:19;7.80;;;3.10;;
31910;SDS011;18457;52.432;16.914;2023-04-25T15:23:56;11.00;;;3.40;;
31910;SDS011;18457;52.432;16.914;2023-04-25T15:26:29;11.50;;;4.40;;
31910;SDS011;18457;52.432;16.914;2023-04-25T15:29:02;8.90;;;3.40;;
31910;SDS011;18457;52.432;16.914;2023-04-25T15:31:35;9.30;;;3.20;;
31910;SDS011;18457;52.432;16.914;2023-04-25T15:34:07;7.50;;;3.30;;
31910;SDS011;18457;52.432;16.914;2023-04-25T15:36:40;9.10;;;3.20;;
31910;SDS011;18457;52.432;16.914;2023-04-25T15:39:12;7.20;;;3.50;;
31910;SDS011;18457;52.432;16.914;2023-04-25T15:41:44;9.90;;;3.90;;
31910;SDS011;18457;52.432;16.914;2023-04-25T15:44:17;7.70;;;3.50;;
31910;SDS011;18457;52.432;16.914;2023-04-25T15:46:50;10.00;;;3.60;;
31910;SDS011;18457;52.432;16.914;2023-04-25T15:49:23;9.00;;;3.60;;
31910;SDS011;18457;52.432;16.914;2023-04-25T15:51:57;13.80;;;4.30;;